AirNav   Pilot Hours Calculator
 
 1485 users online  

WN49 Blue Heron Field Airport
Sequim, Washington, USA

GOING TO SEQUIM?


FAA INFORMATION EFFECTIVE 02 DECEMBER 2021

Location

FAA Identifier: WN49
Lat/Long: 48-07-18.3330N 123-05-16.6370W
48-07.305550N 123-05.277283W
48.1217592,-123.0879547
(estimated)
Elevation: 20 ft. / 6 m (estimated)
Variation: 21E (1985)
From city: 4 miles NE of SEQUIM, WA
Time zone: UTC -8 (UTC -7 during Daylight Saving Time)
Zip code: 98382

Airport Operations

Airport use: Private use. Permission required prior to landing
Activation date: 07/1984
Control tower: no
ARTCC: SEATTLE CENTER
FSS: SEATTLE FLIGHT SERVICE STATION
Attendance: UNATNDD
Wind indicator: yes
Segmented circle: no

Airport Communications

WX AWOS-3P at 0S9 (12 nm E): 119.025 (360-379-1199)
WX AWOS-3P at NOW (13 nm W): 118.325 (360-457-7529)
WX ASOS at CLM (16 nm W): 135.175 (360-457-1070)
WX AWOS-3 at OKH (18 nm NE): 132.775 (360-675-8431)

Nearby radio navigation aids

VOR radial/distance  VOR name  Freq  Var
CVVr224/16.3PENN COVE VOR/DME117.2019E
PAEr270/34.7PAINE VOR/DME110.6020E
YYJr140/39.6VICTORIA VOR/DME113.7017E

 
NDB name  Hdg/Dist  Freq  Var  ID
EDIZ HOOK078/12.733817ENOW -. --- .--
FRIDAY HARBOR169/23.628417EFHR ..-. .... .-.
SKAGIT/BAY VIEW216/33.924016EBVS -... ...- ...

Airport Services

Runway Information

Runway 17/35

Dimensions: 3000 x 75 ft. / 914 x 23 m
Surface: turf, in good condition
RUNWAY 17  RUNWAY 35
Traffic pattern: leftleft
Obstructions: 80 ft. trees, 200 ft. from runway20 ft. bldg, 100 ft. from runway

Airport Ownership and Management from official FAA records

Ownership: Privately-owned
Owner: KATHY KRELL
1362 JAMESTOWN RD
SEQUIM, WA 98302
Phone 907-376-9296
OR 907-376-9296
Manager: KATHY KRELL
1362 JAMESTOWN RD
SEQUIM, WA 98382
Phone 907-376-9296
OR 907-376-9296

Additional Remarks

PLEASE CALL BEFORE LANDING.
FOR CD CTC SEATTLE ARTCC AT 253-351-3694.

Instrument Procedures

There are no published instrument procedures at WN49.

Some nearby airports with instrument procedures:

0S9 - Jefferson County International Airport (12 nm E)
KNOW - Port Angeles Coast Guard Air Station Airport (13 nm W)
KCLM - William R Fairchild International Airport (16 nm W)
KOKH - AJ Eisenberg Airport (18 nm NE)
KNUW - Whidbey Island Naval Air Station (Ault Field) (22 nm NE)
 
Loc | Ops | Rwys | IFR | FBO | Links
Com | Nav | Svcs | Stats | Notes
Area around WN49 (Blue Heron Field Airport)
 
Road maps at: MapQuest Bing Google
 
Aerial photo
No photo
 
Sectional chart

 
Airport distance calculator
Flying to Blue Heron Field Airport? Find the distance to fly.

From to WN49

Sunrise and sunset
Times for 06-Dec-2021
 Local
(UTC-8)
 Zulu
(UTC)
Morning civil twilight07:1315:13
Sunrise07:4915:49
Sunset16:1800:18
Evening civil twilight16:5400:54

Current date and time
Zulu (UTC)  06-Dec-2021 17:34:39
Local (UTC-8)  06-Dec-2021 09:34:39
 
METAR
K0S9 
12nm E 
061715Z AUTO 00000KT 10SM OVC017 03/03 A3004 RMK AO2
KCLM 
17nm W 
061653Z AUTO 18004KT 9SM OVC006 02/01 A3004 RMK AO2 SLP174 T00220011
CWQK 
20nm NW 
061700Z AUTO 01023KT 03/03 RMK AO1 PK WND 01028/1613 SLP172 T00330028 56020
CWLM 
20nm NW 
061700Z AUTO 06005KT 03/03 RMK AO1 2PAST HR 6018 SLP176 P0005 T00250028 50090
CYWH 
20nm NW 
061700Z 02006KT 340V060 1 1/2SM -RA BR SCT003 OVC007 04/03 A3006 RMK SF4SF4 SLP181
KNOW 
21nm W 
061715Z AUTO 16004KT 10SM OVC007 03/02 A3005 RMK AO2 T00280022
CWYJ 
21nm N 
061700Z AUTO 07002KT 03/03 RMK AO1 8PAST HR 6018 SLP179 P0003 T00320032 50073
CWPF 
22nm NW 
061715Z AUTO 35009KT 03/02 RMK AO1 SLP178 T00290021 56014
KNUW 
22nm NE 
061656Z 10012KT 6SM BR SCT014 BKN026 OVC031 04/02 A3010 RMK AO2 SLP192 T00440022 $
TAF
KCLM 
17nm W 
061134Z 0612/0712 VRB03KT P6SM -RA BKN035 OVC090 FM061300 00000KT 5SM -RASN BR OVC010 FM061900 17003KT 4SM BR VCSH OVC007 FM062200 12004KT 4SM BR VCSH OVC010
CYWH 
20nm NW 
061512Z 0615/0703 35006KT P6SM -RA SCT006 OVC012 TEMPO 0615/0620 2SM -RA BR SCT003 OVC006 FM062000 07008KT P6SM -RA SCT008 OVC020 TEMPO 0620/0703 4SM -RA BR OVC008 RMK NXT FCST BY 061800Z
NOTAMs
Click for the latest NOTAMs
NOTAMs are issued by the DoD/FAA and will open in a separate window not controlled by AirNav.

 

 
 

Would you like to see your business listed on this page?

 If your business provides an interesting product or service to pilots, flight crews, aircraft, or users of the Blue Heron Field Airport, you should consider listing it here.  To start the listing process, click on the button below
 
Add a business
 

Other Pages about Blue Heron Field Airport

Update a link
 
Copyright © AirNav, LLC. All rights reserved. Privacy Policy  Contact